createdAt,value
2024-05-09T00:00:35.208Z,21.40
2024-05-09T00:03:12.765Z,19.35
2024-05-09T00:05:50.548Z,20.80
2024-05-09T00:11:11.302Z,20.92
2024-05-09T00:13:45.470Z,21.95
2024-05-09T00:16:18.577Z,21.40
2024-05-09T00:18:54.101Z,17.77
2024-05-09T00:21:30.605Z,23.17
2024-05-09T00:26:50.552Z,18.13
2024-05-09T00:29:24.764Z,23.63
2024-05-09T00:32:00.625Z,20.05
2024-05-09T00:34:40.353Z,23.17
2024-05-09T00:37:25.036Z,21.10
2024-05-09T00:39:58.564Z,19.40
2024-05-09T00:42:35.991Z,19.55
2024-05-09T00:45:10.078Z,21.48
2024-05-09T00:47:45.169Z,20.38
2024-05-09T00:50:36.876Z,23.58
2024-05-09T00:53:10.548Z,20.15
2024-05-09T00:55:42.962Z,20.70
2024-05-09T00:58:21.459Z,19.55
2024-05-09T01:00:59.022Z,19.90
2024-05-09T01:03:33.402Z,20.20
2024-05-09T01:06:11.081Z,21.77
2024-05-09T01:08:43.682Z,19.13
2024-05-09T01:11:22.263Z,24.00
2024-05-09T01:13:52.022Z,22.05
2024-05-09T01:16:24.509Z,23.02
2024-05-09T01:19:05.207Z,23.95
2024-05-09T01:21:45.116Z,22.23
2024-05-09T01:24:19.472Z,20.75
2024-05-09T01:26:50.246Z,23.38
2024-05-09T01:29:30.380Z,21.35
2024-05-09T01:32:06.238Z,23.17
2024-05-09T01:34:39.336Z,22.92
2024-05-09T01:37:10.447Z,22.10
2024-05-09T01:39:45.750Z,22.65
2024-05-09T01:42:15.043Z,24.52
2024-05-09T01:44:49.781Z,20.23
2024-05-09T01:47:22.047Z,21.92
2024-05-09T01:49:59.676Z,22.15
2024-05-09T01:52:35.903Z,22.15
2024-05-09T01:55:08.616Z,20.15
2024-05-09T01:57:42.681Z,22.73
2024-05-09T02:00:30.206Z,24.98
2024-05-09T02:03:14.358Z,20.45
2024-05-09T02:05:50.411Z,22.05
2024-05-09T02:08:21.335Z,21.67
2024-05-09T02:10:53.917Z,22.80
2024-05-09T02:13:34.480Z,25.00
2024-05-09T02:16:07.659Z,21.35
2024-05-09T02:18:40.148Z,20.33
2024-05-09T02:21:12.433Z,19.15
2024-05-09T02:23:45.757Z,21.98
2024-05-09T02:26:19.760Z,21.67
2024-05-09T02:28:51.277Z,20.45
2024-05-09T02:31:24.230Z,21.90
2024-05-09T02:33:57.080Z,22.20
2024-05-09T02:36:32.901Z,23.65
2024-05-09T02:39:05.414Z,22.85
2024-05-09T02:41:44.691Z,22.00
2024-05-09T02:44:16.126Z,23.63
2024-05-09T02:47:03.464Z,21.48
2024-05-09T02:49:43.192Z,22.23
2024-05-09T02:52:15.575Z,23.65
2024-05-09T02:54:51.385Z,20.63
2024-05-09T02:57:26.670Z,25.30
2024-05-09T02:59:58.839Z,22.67
2024-05-09T03:02:32.268Z,22.17
2024-05-09T03:05:06.166Z,23.30
2024-05-09T03:07:38.362Z,25.73
2024-05-09T03:10:25.653Z,23.15
2024-05-09T03:12:58.379Z,22.05
2024-05-09T03:15:30.378Z,23.50
2024-05-09T03:18:07.451Z,26.23
2024-05-09T03:20:41.475Z,21.00
2024-05-09T03:23:14.351Z,28.40
2024-05-09T03:25:57.473Z,23.45
2024-05-09T03:28:29.155Z,23.65
2024-05-09T03:31:04.173Z,24.65
2024-05-09T03:33:38.092Z,25.25
2024-05-09T03:36:17.156Z,22.73
2024-05-09T03:38:51.466Z,24.95
2024-05-09T03:41:31.695Z,23.15
2024-05-09T03:44:04.145Z,25.25
2024-05-09T03:46:39.879Z,23.02
2024-05-09T03:49:26.950Z,26.23
2024-05-09T03:52:12.006Z,24.90
2024-05-09T03:54:49.202Z,23.17
2024-05-09T03:57:28.362Z,22.73
2024-05-09T03:59:57.452Z,27.55
2024-05-09T04:02:37.196Z,25.73
2024-05-09T04:05:08.239Z,26.75
2024-05-09T04:10:30.522Z,24.88
2024-05-09T04:13:12.244Z,25.48
2024-05-09T04:15:45.432Z,24.63
2024-05-09T04:18:18.734Z,23.73
2024-05-09T04:20:47.794Z,26.13
2024-05-09T04:23:22.882Z,22.35
2024-05-09T04:25:57.198Z,25.60
2024-05-09T04:28:28.780Z,25.88
2024-05-09T04:31:03.397Z,25.63
2024-05-09T04:33:34.229Z,22.50
2024-05-09T04:36:09.515Z,24.55
2024-05-09T04:38:40.422Z,24.23
2024-05-09T04:41:12.508Z,23.83
2024-05-09T04:43:45.449Z,23.13
2024-05-09T04:46:20.794Z,25.70
2024-05-09T04:48:54.693Z,24.25
2024-05-09T04:51:31.293Z,26.77
2024-05-09T04:54:10.634Z,25.63
2024-05-09T04:56:45.338Z,29.92
2024-05-09T04:59:16.166Z,28.30
2024-05-09T05:01:54.467Z,27.58
2024-05-09T05:04:28.826Z,29.90
2024-05-09T05:07:02.879Z,27.60
2024-05-09T05:12:21.184Z,26.35
2024-05-09T05:14:57.212Z,23.85
2024-05-09T05:17:34.297Z,24.88
2024-05-09T05:20:12.686Z,23.58
2024-05-09T05:22:45.302Z,25.67
2024-05-09T05:25:19.755Z,23.38
2024-05-09T05:27:50.260Z,21.63
2024-05-09T05:30:34.548Z,22.58
2024-05-09T05:35:47.945Z,21.55
2024-05-09T05:41:17.464Z,25.33
2024-05-09T05:43:59.056Z,23.02
2024-05-09T05:46:33.995Z,23.90
2024-05-09T05:49:18.115Z,24.15
2024-05-09T05:51:52.890Z,24.80
2024-05-09T05:54:28.130Z,23.67
2024-05-09T05:57:03.465Z,23.67
2024-05-09T05:59:44.283Z,24.23
2024-05-09T06:02:13.978Z,29.00
2024-05-09T06:04:44.026Z,24.23
2024-05-09T06:07:20.685Z,27.33
2024-05-09T06:09:57.235Z,26.48
2024-05-09T06:12:40.620Z,26.98
2024-05-09T06:18:00.341Z,24.55
2024-05-09T06:20:37.690Z,26.20
2024-05-09T06:23:17.362Z,25.10
2024-05-09T06:25:47.833Z,24.98
2024-05-09T06:28:26.789Z,22.17
2024-05-09T06:33:47.320Z,19.17
2024-05-09T06:36:23.265Z,16.83
2024-05-09T06:38:57.433Z,17.73
2024-05-09T06:41:32.530Z,16.40
2024-05-09T06:44:13.551Z,19.63
2024-05-09T06:46:47.662Z,15.75
2024-05-09T06:49:39.816Z,16.88
2024-05-09T06:52:22.232Z,15.75
2024-05-09T06:54:56.033Z,16.02
2024-05-09T06:57:43.360Z,14.40
2024-05-09T07:00:26.872Z,18.08
2024-05-09T07:03:05.492Z,16.05
2024-05-09T07:05:44.704Z,13.57
2024-05-09T07:08:17.230Z,13.95
2024-05-09T07:10:50.928Z,14.27
2024-05-09T07:13:31.937Z,13.93
2024-05-09T07:16:08.906Z,13.77
2024-05-09T07:18:46.162Z,14.00
2024-05-09T07:21:30.944Z,13.25
2024-05-09T07:24:05.873Z,11.55
2024-05-09T07:26:43.801Z,10.82
2024-05-09T07:29:20.184Z,11.85
2024-05-09T07:31:56.362Z,10.85
2024-05-09T07:34:27.632Z,10.45
2024-05-09T07:36:59.496Z,11.07
2024-05-09T07:39:36.067Z,12.40
2024-05-09T07:42:15.862Z,8.55
2024-05-09T07:45:21.380Z,9.10
2024-05-09T07:55:34.272Z,7.85
2024-05-09T07:58:08.759Z,8.90
2024-05-09T08:00:44.263Z,9.65
2024-05-09T08:03:24.999Z,9.80
2024-05-09T08:05:58.177Z,12.35
2024-05-09T08:11:19.383Z,12.32
2024-05-09T08:13:51.302Z,10.93
2024-05-09T08:16:24.917Z,10.02
2024-05-09T08:18:58.903Z,12.20
2024-05-09T08:21:30.457Z,9.65
2024-05-09T08:24:12.553Z,10.38
2024-05-09T08:26:49.222Z,9.50
2024-05-09T08:29:21.535Z,9.15
2024-05-09T08:31:57.096Z,12.30
2024-05-09T08:37:23.401Z,9.30
2024-05-09T08:40:04.116Z,10.15
2024-05-09T08:42:45.214Z,9.82
2024-05-09T08:45:16.014Z,11.38
2024-05-09T08:48:19.555Z,11.40
2024-05-09T08:50:53.358Z,9.27
2024-05-09T08:53:30.593Z,9.82
2024-05-09T08:56:07.421Z,9.98
2024-05-09T08:58:47.161Z,10.45
2024-05-09T09:01:43.900Z,9.95
2024-05-09T09:04:16.857Z,9.32
2024-05-09T09:06:48.348Z,11.73
2024-05-09T09:09:23.636Z,11.10
2024-05-09T09:11:59.184Z,11.02
2024-05-09T09:14:40.076Z,9.73
2024-05-09T09:17:21.828Z,9.88
2024-05-09T09:20:05.321Z,11.10
2024-05-09T09:25:22.525Z,9.40
2024-05-09T09:27:58.522Z,12.05
2024-05-09T09:30:36.320Z,9.98
2024-05-09T09:33:11.876Z,12.00
2024-05-09T09:35:45.266Z,10.13
2024-05-09T09:38:25.072Z,11.80
2024-05-09T09:40:55.154Z,12.10
2024-05-09T09:43:30.742Z,14.77
2024-05-09T09:46:06.772Z,11.48
2024-05-09T09:48:41.594Z,12.88
2024-05-09T09:53:47.144Z,10.10
2024-05-09T09:56:21.580Z,10.30
2024-05-09T09:59:04.829Z,10.70
2024-05-09T10:04:19.954Z,11.68
2024-05-09T10:07:07.390Z,14.35
2024-05-09T10:09:52.360Z,12.93
2024-05-09T10:12:29.675Z,12.25
2024-05-09T10:17:51.835Z,13.27
2024-05-09T10:20:35.228Z,13.07
2024-05-09T10:23:15.266Z,12.30
2024-05-09T10:25:49.221Z,13.48
2024-05-09T10:28:20.056Z,13.45
2024-05-09T10:31:11.733Z,12.90
2024-05-09T10:33:47.492Z,13.15
2024-05-09T10:36:17.630Z,13.27
2024-05-09T10:38:48.754Z,10.82
2024-05-09T10:41:40.211Z,13.15
2024-05-09T10:44:18.086Z,11.30
2024-05-09T10:46:50.694Z,11.13
2024-05-09T10:49:26.917Z,14.77
2024-05-09T10:52:11.405Z,14.13
2024-05-09T10:54:41.909Z,15.88
2024-05-09T10:57:20.955Z,12.88
2024-05-09T10:59:59.660Z,14.00
2024-05-09T11:02:38.937Z,13.77
2024-05-09T11:05:09.503Z,12.73
2024-05-09T11:07:51.818Z,13.35
2024-05-09T11:10:33.543Z,12.02
2024-05-09T11:13:08.046Z,11.10
2024-05-09T11:15:44.872Z,13.32
2024-05-09T11:18:37.795Z,12.65
2024-05-09T11:21:18.419Z,10.23
2024-05-09T11:24:11.823Z,11.98
2024-05-09T11:26:44.089Z,12.10
2024-05-09T11:29:19.760Z,10.85
2024-05-09T11:31:50.568Z,10.82
2024-05-09T11:34:25.167Z,9.93
2024-05-09T11:39:34.501Z,10.50
2024-05-09T11:42:06.619Z,10.35
2024-05-09T11:44:37.175Z,9.40
2024-05-09T11:47:12.760Z,9.95
2024-05-09T11:49:44.277Z,10.27
2024-05-09T11:52:21.811Z,9.52
2024-05-09T11:54:57.438Z,9.38
2024-05-09T11:57:34.817Z,9.57
2024-05-09T12:05:26.919Z,9.38
2024-05-09T12:07:59.621Z,10.98
2024-05-09T12:10:49.323Z,10.32
2024-05-09T12:13:24.508Z,8.30
2024-05-09T12:15:57.417Z,10.93
2024-05-09T12:18:40.945Z,11.07
2024-05-09T12:21:20.797Z,10.60
2024-05-09T12:26:45.497Z,9.75
2024-05-09T12:29:14.830Z,8.80
2024-05-09T12:31:50.905Z,12.55
2024-05-09T12:34:22.305Z,10.60
2024-05-09T12:37:01.008Z,10.93
2024-05-09T12:39:39.359Z,9.45
2024-05-09T12:42:26.327Z,10.38
2024-05-09T12:45:05.830Z,10.45
2024-05-09T12:47:36.782Z,10.05
2024-05-09T12:52:59.482Z,9.98
2024-05-09T12:55:44.807Z,7.80
2024-05-09T12:58:41.019Z,7.57
2024-05-09T13:03:57.449Z,9.05
2024-05-09T13:06:32.999Z,8.77
2024-05-09T13:09:09.044Z,10.43
2024-05-09T13:11:49.278Z,8.45
2024-05-09T13:14:18.270Z,7.53
2024-05-09T13:16:48.844Z,8.13
2024-05-09T13:19:34.834Z,8.43
2024-05-09T13:22:15.660Z,8.50
2024-05-09T13:24:51.894Z,7.78
2024-05-09T13:27:22.851Z,6.80
2024-05-09T13:29:57.235Z,7.15
2024-05-09T13:32:26.769Z,8.15
2024-05-09T13:34:57.400Z,6.47
2024-05-09T13:37:27.146Z,8.07
2024-05-09T13:40:00.815Z,7.15
2024-05-09T13:42:38.572Z,7.15
2024-05-09T13:45:33.525Z,7.43
2024-05-09T13:48:05.523Z,6.88
2024-05-09T13:50:39.057Z,8.30
2024-05-09T13:53:28.806Z,7.03
2024-05-09T13:56:00.145Z,7.72
2024-05-09T13:58:30.538Z,6.82
2024-05-09T14:01:00.908Z,6.15
2024-05-09T14:03:42.979Z,9.68
2024-05-09T14:06:16.439Z,8.25
2024-05-09T14:11:21.987Z,6.30
2024-05-09T14:13:57.499Z,7.15
2024-05-09T14:16:28.474Z,6.60
2024-05-09T14:19:11.707Z,7.38
2024-05-09T14:21:47.567Z,8.93
2024-05-09T14:24:18.017Z,6.88
2024-05-09T14:27:17.751Z,8.60
2024-05-09T14:29:53.337Z,5.15
2024-05-09T14:32:33.106Z,6.53
2024-05-09T14:35:10.837Z,5.68
2024-05-09T14:37:42.411Z,5.30
2024-05-09T14:40:29.799Z,5.82
2024-05-09T14:43:09.023Z,6.85
2024-05-09T14:45:45.987Z,6.40
2024-05-09T14:48:20.707Z,6.03
2024-05-09T14:51:04.469Z,4.63
2024-05-09T14:56:17.717Z,5.25
2024-05-09T14:58:48.992Z,4.65
2024-05-09T15:01:30.101Z,5.47
2024-05-09T15:04:01.529Z,5.32
2024-05-09T15:06:42.015Z,6.50
2024-05-09T15:09:19.185Z,6.93
2024-05-09T15:11:49.518Z,5.88
2024-05-09T15:14:21.008Z,6.95
2024-05-09T15:16:57.044Z,7.60
2024-05-09T15:19:38.430Z,4.57
2024-05-09T15:22:11.031Z,7.25
2024-05-09T15:24:51.378Z,5.22
2024-05-09T15:27:26.474Z,4.63
2024-05-09T15:29:59.505Z,4.85
2024-05-09T15:32:36.599Z,6.60
2024-05-09T15:35:09.607Z,7.35
2024-05-09T15:37:43.455Z,5.13
2024-05-09T15:40:26.245Z,5.22
2024-05-09T15:43:16.115Z,6.47
2024-05-09T15:45:50.476Z,4.88
2024-05-09T15:48:22.534Z,5.78
2024-05-09T15:50:53.959Z,5.10
2024-05-09T15:53:34.668Z,6.43
2024-05-09T16:01:40.594Z,6.75
2024-05-09T16:04:12.028Z,7.03
2024-05-09T16:06:48.368Z,6.22
2024-05-09T16:09:20.923Z,5.85
2024-05-09T16:11:51.314Z,6.28
2024-05-09T16:14:28.872Z,5.32
2024-05-09T16:17:01.324Z,6.80
2024-05-09T16:19:38.217Z,6.22
2024-05-09T16:22:15.980Z,5.97
2024-05-09T16:24:51.415Z,5.07
2024-05-09T16:27:30.310Z,6.32
2024-05-09T16:30:20.836Z,5.90
2024-05-09T16:33:01.683Z,5.38
2024-05-09T16:35:34.212Z,6.30
2024-05-09T16:38:05.599Z,15.48
2024-05-09T16:43:26.531Z,6.30
2024-05-09T16:45:58.726Z,7.40
2024-05-09T16:48:33.408Z,4.80
2024-05-09T16:51:08.930Z,6.97
2024-05-09T16:54:09.907Z,9.20
2024-05-09T16:59:21.410Z,6.18
2024-05-09T17:02:01.734Z,5.85
2024-05-09T17:04:46.347Z,4.60
2024-05-09T17:07:34.538Z,5.68
2024-05-09T17:10:29.660Z,5.07
2024-05-09T17:15:39.011Z,6.20
2024-05-09T17:18:14.217Z,6.00
2024-05-09T17:20:49.758Z,7.70
2024-05-09T17:23:21.824Z,6.78
2024-05-09T17:28:40.849Z,5.95
2024-05-09T17:31:12.931Z,7.68
2024-05-09T17:33:45.441Z,5.03
2024-05-09T17:36:26.545Z,6.40
2024-05-09T17:45:33.770Z,7.70
2024-05-09T17:48:12.017Z,6.80
2024-05-09T17:51:23.379Z,7.47
2024-05-09T17:56:55.901Z,9.00
2024-05-09T17:59:38.103Z,6.15
2024-05-09T18:05:38.722Z,7.95
2024-05-09T18:20:45.563Z,7.95
2024-05-09T18:23:09.499Z,8.90
2024-05-09T20:07:41.272Z,8.30
2024-05-09T20:10:23.727Z,7.93
2024-05-09T20:12:57.527Z,7.57
2024-05-09T20:15:31.111Z,8.82
2024-05-09T20:18:04.400Z,7.22
2024-05-09T20:20:50.651Z,8.57
2024-05-09T20:23:22.064Z,8.35
2024-05-09T20:40:29.193Z,7.95
2024-05-09T20:43:12.330Z,7.68
2024-05-09T20:45:50.346Z,8.93
2024-05-09T20:48:26.830Z,9.38
2024-05-09T20:51:04.886Z,10.90
2024-05-09T20:53:37.556Z,9.43
2024-05-09T20:58:53.693Z,9.40
2024-05-09T21:01:40.469Z,10.18
2024-05-09T21:04:09.758Z,9.15
2024-05-09T21:06:50.438Z,10.15
2024-05-09T21:09:22.178Z,8.70
2024-05-09T21:11:57.414Z,10.25
2024-05-09T21:14:26.757Z,9.45
2024-05-09T21:16:59.654Z,12.23
2024-05-09T21:19:36.421Z,10.02
2024-05-09T21:22:10.472Z,9.52
2024-05-09T21:24:45.879Z,9.23
2024-05-09T21:27:22.540Z,13.25
2024-05-09T21:29:53.504Z,10.20
2024-05-09T21:32:30.691Z,10.25
2024-05-09T21:35:03.941Z,11.18
2024-05-09T21:37:41.023Z,9.77
2024-05-09T21:40:26.642Z,11.10
2024-05-09T21:45:56.860Z,8.98
2024-05-09T21:48:27.603Z,9.63
2024-05-09T21:51:23.447Z,9.80
2024-05-09T21:53:52.934Z,10.88
2024-05-09T21:56:32.857Z,9.60
2024-05-09T21:59:08.135Z,9.90
2024-05-09T22:01:42.535Z,8.57
2024-05-09T22:04:14.192Z,11.27
2024-05-09T22:06:50.645Z,9.05
2024-05-09T22:09:27.454Z,9.95
2024-05-09T22:11:59.486Z,11.75
2024-05-09T22:14:34.510Z,11.00
2024-05-09T22:17:07.666Z,10.85
2024-05-09T22:19:43.247Z,10.95
2024-05-09T22:22:21.369Z,12.02
2024-05-09T22:25:02.925Z,10.80
2024-05-09T22:27:39.134Z,10.80
2024-05-09T22:30:17.534Z,9.70
2024-05-09T22:35:34.194Z,10.90
2024-05-09T22:38:10.950Z,9.90
2024-05-09T22:40:52.979Z,11.57
2024-05-09T22:43:29.767Z,11.73
2024-05-09T22:46:07.070Z,11.98
2024-05-09T22:48:43.853Z,12.13
2024-05-09T22:51:22.931Z,9.93
2024-05-09T22:54:00.384Z,10.68
2024-05-09T22:56:42.468Z,10.05
2024-05-09T22:59:26.129Z,9.32
2024-05-09T23:04:56.345Z,11.73
2024-05-09T23:07:29.016Z,10.10
2024-05-09T23:10:13.002Z,12.13
2024-05-09T23:12:48.381Z,11.68
2024-05-09T23:20:47.244Z,10.80
2024-05-09T23:23:20.375Z,11.65
2024-05-09T23:25:57.398Z,12.13
2024-05-09T23:28:31.945Z,12.90
2024-05-09T23:33:49.178Z,12.77
2024-05-09T23:36:20.661Z,10.65
2024-05-09T23:38:50.752Z,10.77
2024-05-09T23:41:33.415Z,11.70
2024-05-09T23:44:05.350Z,11.48
2024-05-09T23:46:42.066Z,12.55
2024-05-09T23:51:56.478Z,12.32
2024-05-09T23:54:28.290Z,11.07
2024-05-09T23:57:01.033Z,12.32
2024-05-09T23:59:32.747Z,11.73
